createdAt,value
2018-09-13T02:09:26.909Z,16.62
2018-09-13T04:12:45.307Z,16.85
2018-09-13T04:18:00.573Z,16.87
2018-09-13T04:23:30.871Z,16.82
2018-09-13T04:26:30.921Z,16.74
2018-09-13T04:29:03.185Z,16.68
2018-09-13T04:31:34.042Z,16.65
2018-09-13T04:34:03.931Z,16.64
2018-09-13T04:36:34.170Z,16.64
2018-09-13T04:39:04.585Z,16.59
2018-09-13T04:41:37.472Z,16.58
2018-09-13T04:44:08.118Z,16.61
2018-09-13T04:46:39.911Z,16.59
2018-09-13T04:49:10.432Z,16.45
2018-09-13T04:51:41.342Z,16.69
2018-09-13T05:11:42.870Z,16.76
2018-09-13T05:14:13.455Z,16.77
2018-09-13T05:16:44.916Z,16.77
2018-09-13T05:19:18.075Z,16.78
2018-09-13T05:59:46.353Z,17.03
2018-09-13T06:02:16.329Z,16.98
2018-09-13T06:05:36.238Z,17.01
2018-09-13T06:11:06.151Z,17.13
2018-09-13T06:13:36.188Z,17.17
2018-09-13T06:16:06.668Z,17.24
2018-09-13T06:21:34.185Z,17.46
2018-09-13T06:24:04.243Z,17.51
2018-09-13T06:26:35.535Z,17.52
2018-09-13T06:32:07.340Z,17.55
2018-09-13T06:34:37.289Z,17.56
2018-09-13T06:37:08.415Z,17.60
2018-09-13T07:34:48.533Z,20.09
2018-09-13T07:43:28.298Z,20.84
2018-09-13T07:45:58.995Z,20.56
2018-09-13T07:48:35.281Z,20.59
2018-09-13T07:54:04.338Z,20.71
2018-09-13T07:56:34.701Z,20.49
2018-09-13T07:59:05.372Z,20.42
2018-09-13T08:01:38.071Z,20.62
2018-09-13T08:04:10.303Z,20.72
2018-09-13T08:06:40.998Z,20.77
2018-09-13T08:09:14.055Z,20.84
2018-09-13T08:11:47.277Z,20.76
2018-09-13T08:14:21.735Z,20.76
2018-09-13T08:16:53.496Z,20.64
2018-09-13T08:19:26.374Z,20.97
2018-09-13T08:21:59.416Z,22.20
2018-09-13T08:24:30.640Z,23.65
2018-09-13T08:27:00.571Z,24.11
2018-09-13T08:29:31.887Z,24.40
2018-09-13T08:32:02.289Z,24.41
2018-09-13T08:34:39.017Z,24.58
2018-09-13T08:37:09.109Z,24.57
2018-09-13T08:39:39.083Z,25.36
2018-09-13T08:42:11.294Z,26.52
2018-09-13T08:44:42.716Z,27.49
2018-09-13T08:47:13.564Z,27.94
2018-09-13T08:49:43.609Z,27.97
2018-09-13T08:52:14.419Z,27.50
2018-09-13T08:54:47.786Z,27.24
2018-09-13T08:57:21.330Z,26.80
2018-09-13T08:59:52.557Z,26.58
2018-09-13T09:02:22.299Z,26.56
2018-09-13T09:04:55.346Z,26.75
2018-09-13T09:07:26.311Z,26.78
2018-09-13T09:09:56.051Z,26.40
2018-09-13T09:12:26.054Z,25.82
2018-09-13T09:14:58.372Z,25.75
2018-09-13T09:17:28.798Z,25.41
2018-09-13T09:19:59.567Z,25.23
2018-09-13T09:22:30.635Z,24.98
2018-09-13T09:25:13.582Z,24.94
2018-09-13T09:27:43.424Z,24.52
2018-09-13T09:30:15.588Z,24.50
2018-09-13T09:32:48.207Z,24.40
2018-09-13T09:35:18.930Z,24.04
2018-09-13T09:37:58.297Z,23.89
2018-09-13T09:40:29.017Z,23.60
2018-09-13T09:42:59.227Z,23.42
2018-09-13T09:45:30.181Z,23.76
2018-09-13T09:48:00.546Z,23.77
2018-09-13T09:50:32.038Z,24.00
2018-09-13T09:53:02.724Z,24.09
2018-09-13T09:55:34.499Z,24.15
2018-09-13T09:58:04.396Z,24.26
2018-09-13T10:00:39.165Z,24.40
2018-09-13T10:06:10.403Z,25.40
2018-09-13T10:08:41.007Z,26.15
2018-09-13T10:11:12.555Z,25.78
2018-09-13T10:13:42.742Z,25.58
2018-09-13T10:16:20.561Z,24.96
2018-09-13T10:19:22.630Z,24.79
2018-09-13T10:21:58.789Z,24.75
2018-09-13T10:24:35.970Z,24.85
2018-09-13T10:27:10.917Z,24.77
2018-09-13T10:29:52.856Z,24.74
2018-09-13T10:32:27.804Z,24.55
2018-09-13T10:35:05.181Z,24.44
2018-09-13T10:37:41.445Z,24.05
2018-09-13T10:40:17.843Z,24.04
2018-09-13T10:42:53.266Z,24.03
2018-09-13T10:46:31.999Z,24.18
2018-09-13T10:49:07.002Z,24.15
2018-09-13T10:51:42.444Z,24.29
2018-09-13T10:54:18.989Z,24.80
2018-09-13T10:56:57.004Z,24.91
2018-09-13T10:59:26.793Z,25.25
2018-09-13T11:01:57.830Z,24.98
2018-09-13T11:04:29.064Z,25.01
2018-09-13T11:07:01.485Z,24.63
2018-09-13T11:09:31.960Z,24.34
2018-09-13T11:12:10.810Z,24.36
2018-09-13T11:14:56.624Z,24.40
2018-09-13T11:17:27.931Z,24.43
2018-09-13T11:19:59.624Z,24.63
2018-09-13T11:22:30.411Z,24.75
2018-09-13T11:25:02.727Z,25.01
2018-09-13T11:27:32.511Z,25.33
2018-09-13T11:30:02.285Z,25.32
2018-09-13T11:32:32.964Z,25.37
2018-09-13T11:35:02.703Z,25.46
2018-09-13T11:37:33.833Z,25.58
2018-09-13T11:40:05.055Z,26.01
2018-09-13T11:42:34.827Z,26.02
2018-09-13T11:45:06.272Z,25.71
2018-09-13T11:47:37.361Z,25.70
2018-09-13T11:50:08.710Z,25.97
2018-09-13T11:52:38.539Z,26.75
2018-09-13T11:55:09.793Z,27.02
2018-09-13T11:57:40.193Z,27.07
2018-09-13T12:00:10.395Z,26.71
2018-09-13T12:02:55.656Z,26.63
2018-09-13T12:05:26.230Z,25.88
2018-09-13T12:07:55.989Z,26.09
2018-09-13T12:10:29.465Z,25.57
2018-09-13T12:12:59.952Z,25.11
2018-09-13T12:15:30.352Z,25.25
2018-09-13T12:18:01.283Z,25.11
2018-09-13T12:20:31.956Z,25.19
2018-09-13T12:23:04.841Z,25.57
2018-09-13T12:25:34.757Z,25.35
2018-09-13T12:28:05.996Z,25.12
2018-09-13T12:30:44.256Z,25.27
2018-09-13T12:33:15.494Z,25.27
2018-09-13T12:35:45.589Z,25.35
2018-09-13T12:38:17.697Z,25.14
2018-09-13T12:40:47.431Z,25.16
2018-09-13T12:43:17.369Z,25.21
2018-09-13T12:45:47.648Z,25.12
2018-09-13T12:48:18.884Z,25.15
2018-09-13T12:50:49.249Z,25.14
2018-09-13T12:53:21.757Z,25.31
2018-09-13T12:55:54.818Z,25.58
2018-09-13T12:58:27.456Z,25.43
2018-09-13T13:00:59.305Z,25.40
2018-09-13T13:03:32.795Z,25.51
2018-09-13T13:06:04.031Z,25.47
2018-09-13T13:08:36.002Z,25.83
2018-09-13T13:11:06.115Z,26.19
2018-09-13T13:13:38.766Z,26.49
2018-09-13T13:16:10.993Z,26.76
2018-09-13T13:18:43.026Z,27.01
2018-09-13T13:21:13.726Z,27.47
2018-09-13T13:23:45.099Z,27.65
2018-09-13T13:26:16.718Z,27.77
2018-09-13T13:28:48.584Z,28.72
2018-09-13T13:31:18.349Z,29.02
2018-09-13T13:33:47.983Z,28.86
2018-09-13T13:36:18.281Z,28.51
2018-09-13T13:41:55.380Z,28.15
2018-09-13T13:44:49.876Z,28.59
2018-09-13T13:47:21.102Z,29.24
2018-09-13T13:49:57.813Z,28.31
2018-09-13T13:52:32.788Z,27.57
2018-09-13T13:55:03.529Z,27.41
2018-09-13T13:57:35.244Z,26.99
2018-09-13T14:00:15.023Z,26.47
2018-09-13T14:02:47.864Z,26.07
2018-09-13T14:05:33.521Z,26.44
2018-09-13T14:08:06.410Z,26.73
2018-09-13T14:10:38.877Z,26.32
2018-09-13T14:13:09.217Z,25.54
2018-09-13T14:15:39.232Z,25.67
2018-09-13T14:18:09.572Z,25.29
2018-09-13T14:20:41.505Z,25.26
2018-09-13T14:23:18.362Z,26.43
2018-09-13T14:25:48.507Z,28.04
2018-09-13T14:28:18.460Z,29.49
2018-09-13T14:30:48.501Z,29.75
2018-09-13T14:33:22.626Z,28.60
2018-09-13T14:35:53.690Z,28.68
2018-09-13T14:38:24.846Z,28.55
2018-09-13T14:41:00.274Z,28.17
2018-09-13T14:43:30.201Z,28.75
2018-09-13T14:46:00.544Z,28.29
2018-09-13T14:48:35.073Z,26.68
2018-09-13T14:51:06.131Z,26.29
2018-09-13T14:53:37.283Z,25.71
2018-09-13T14:56:10.372Z,25.14
2018-09-13T14:58:42.676Z,24.44
2018-09-13T15:01:16.567Z,24.01
2018-09-13T15:03:54.792Z,23.46
2018-09-13T15:06:25.993Z,23.13
2018-09-13T15:08:57.650Z,23.10
2018-09-13T15:11:33.925Z,22.97
2018-09-13T15:14:20.084Z,22.61
2018-09-13T15:17:02.905Z,22.38
2018-09-13T15:19:40.256Z,22.30
2018-09-13T15:22:16.138Z,21.83
2018-09-13T15:24:58.367Z,21.49
2018-09-13T15:27:38.800Z,21.37
2018-09-13T15:30:24.620Z,21.33
2018-09-13T15:33:08.813Z,21.36
2018-09-13T15:35:42.790Z,21.08
2018-09-13T15:38:34.939Z,20.92
2018-09-13T15:41:06.783Z,20.73
2018-09-13T15:43:37.201Z,20.64
2018-09-13T15:46:23.828Z,20.55
2018-09-13T15:49:15.049Z,20.50
2018-09-13T15:52:11.399Z,20.51
2018-09-13T15:55:08.348Z,20.50
2018-09-13T16:00:54.135Z,20.13
2018-09-13T16:03:24.307Z,19.94
2018-09-13T16:05:54.441Z,19.60
2018-09-13T16:08:34.473Z,19.05
2018-09-13T16:11:05.105Z,18.16
2018-09-13T16:13:35.444Z,17.56
2018-09-13T16:16:19.613Z,17.22
2018-09-13T16:19:10.112Z,16.98
2018-09-13T16:30:56.333Z,16.48
2018-09-13T16:33:35.188Z,16.39
2018-09-13T16:38:56.846Z,16.36
2018-09-13T16:47:32.752Z,16.19
2018-09-13T16:50:04.694Z,16.06
2018-09-13T16:52:35.311Z,15.99
2018-09-13T17:00:57.608Z,15.94
2018-09-13T17:03:28.798Z,15.93
2018-09-13T17:06:03.581Z,15.92
2018-09-13T17:08:35.498Z,15.85
2018-09-13T17:11:14.041Z,15.81
2018-09-13T17:13:46.477Z,15.74
2018-09-13T17:16:23.192Z,15.76
2018-09-13T17:18:55.361Z,15.83
2018-09-13T17:23:59.433Z,15.84
2018-09-13T17:26:34.653Z,15.85
2018-09-13T17:29:12.178Z,15.85
2018-09-13T17:31:43.901Z,15.87
2018-09-13T17:34:14.878Z,15.89
2018-09-13T17:36:47.865Z,15.91
2018-09-13T17:39:20.178Z,15.83
2018-09-13T17:42:13.606Z,15.82
2018-09-13T17:44:45.920Z,15.75
2018-09-13T17:47:18.035Z,15.64
2018-09-13T17:49:48.615Z,15.66
2018-09-13T17:52:19.123Z,15.64
2018-09-13T17:54:53.900Z,15.59
2018-09-13T17:57:31.718Z,15.72
2018-09-13T18:00:06.038Z,15.82
2018-09-13T18:02:48.795Z,15.88
2018-09-13T18:05:23.871Z,15.89
2018-09-13T18:08:02.762Z,15.82
2018-09-13T18:10:34.926Z,15.75
2018-09-13T18:13:06.592Z,15.72
2018-09-13T18:15:54.376Z,15.70
2018-09-13T18:18:31.748Z,15.70
2018-09-13T18:21:11.580Z,15.69
2018-09-13T18:23:42.392Z,15.68
2018-09-13T18:26:26.283Z,15.69
2018-09-13T18:28:57.571Z,15.66
2018-09-13T18:31:33.556Z,15.59
2018-09-13T18:36:53.870Z,15.58
2018-09-13T18:39:31.823Z,15.62
2018-09-13T18:42:04.341Z,15.61
2018-09-13T18:44:38.988Z,15.64
2018-09-13T18:47:12.650Z,15.69
2018-09-13T18:49:44.355Z,15.65
2018-09-13T18:52:18.355Z,15.66
2018-09-13T18:54:56.637Z,15.66
2018-09-13T18:57:30.203Z,15.62
2018-09-13T19:00:04.671Z,15.59
2018-09-13T19:02:43.479Z,15.61
2018-09-13T19:05:14.315Z,15.62
2018-09-13T19:07:45.655Z,15.64
2018-09-13T19:10:21.051Z,15.64
2018-09-13T19:12:54.722Z,15.62
2018-09-13T19:15:31.630Z,15.61
2018-09-13T19:18:14.312Z,15.60
2018-09-13T19:20:55.806Z,15.64
2018-09-13T19:23:31.326Z,15.67
2018-09-13T19:26:08.176Z,15.64
2018-09-13T19:31:34.108Z,15.62
2018-09-13T19:34:16.632Z,15.61
2018-09-13T19:36:56.812Z,15.59
2018-09-13T19:42:41.734Z,15.64
2018-09-13T19:45:25.313Z,15.64
2018-09-13T19:48:08.298Z,15.61
2018-09-13T19:50:41.835Z,15.59
2018-09-13T19:53:12.490Z,15.58
2018-09-13T19:55:45.374Z,15.48
2018-09-13T19:58:20.580Z,15.53
2018-09-13T20:00:54.395Z,15.52
2018-09-13T20:03:37.488Z,15.61
2018-09-13T20:06:12.156Z,15.54
2018-09-13T20:08:43.386Z,15.53
2018-09-13T20:11:18.596Z,15.51
2018-09-13T20:13:48.698Z,15.53
2018-09-13T20:16:20.813Z,15.54
2018-09-13T20:18:53.837Z,15.52
2018-09-13T20:21:29.647Z,15.51
2018-09-13T20:24:02.167Z,15.52
2018-09-13T20:26:37.942Z,15.54
2018-09-13T20:29:11.977Z,15.51
2018-09-13T20:31:43.233Z,15.51
2018-09-13T20:34:15.169Z,15.52
2018-09-13T20:36:45.000Z,15.44
2018-09-13T20:39:15.280Z,15.47
2018-09-13T20:41:45.452Z,15.47
2018-09-13T20:44:17.829Z,15.44
2018-09-13T20:46:56.028Z,15.45
2018-09-13T20:49:30.642Z,15.43
2018-09-13T20:52:06.624Z,15.41
2018-09-13T20:54:41.603Z,15.43
2018-09-13T20:57:14.621Z,15.40
2018-09-13T20:59:49.153Z,15.37
2018-09-13T21:02:21.000Z,15.40
2018-09-13T21:04:57.078Z,15.42
2018-09-13T21:07:28.942Z,15.42
2018-09-13T21:10:02.591Z,15.42
2018-09-13T21:12:33.566Z,15.42
2018-09-13T21:15:06.339Z,15.45
2018-09-13T21:17:36.589Z,15.44
2018-09-13T21:20:11.473Z,15.43
2018-09-13T21:22:42.308Z,15.43
2018-09-13T21:25:12.687Z,15.37
2018-09-13T21:27:44.499Z,15.45
2018-09-13T21:30:14.464Z,15.49
2018-09-13T21:32:45.170Z,15.49
2018-09-13T21:35:14.894Z,15.50
2018-09-13T21:37:46.066Z,15.46
2018-09-13T21:40:16.596Z,15.44
2018-09-13T21:42:47.081Z,15.42
2018-09-13T21:45:17.930Z,15.44
2018-09-13T21:47:49.214Z,15.48
2018-09-13T21:50:21.191Z,15.45
2018-09-13T21:52:57.521Z,15.46
2018-09-13T21:55:31.352Z,15.46
2018-09-13T21:58:01.189Z,15.47
2018-09-13T22:00:32.035Z,15.44
2018-09-13T22:03:01.753Z,15.49
2018-09-13T22:05:31.767Z,15.44
2018-09-13T22:08:01.991Z,15.36
2018-09-13T22:10:31.897Z,15.36
2018-09-13T22:13:01.658Z,15.25
2018-09-13T22:15:32.126Z,15.18
2018-09-13T22:18:02.396Z,15.11
2018-09-13T22:20:32.674Z,15.07
2018-09-13T22:23:02.445Z,15.06
2018-09-13T22:25:32.552Z,15.05
2018-09-13T22:28:02.305Z,15.05
2018-09-13T22:30:32.631Z,15.03
2018-09-13T22:33:07.791Z,15.02
2018-09-13T22:35:38.295Z,15.02
2018-09-13T22:38:08.801Z,15.04
2018-09-13T22:40:42.093Z,15.06
2018-09-13T22:43:17.646Z,15.10
2018-09-13T22:45:47.306Z,15.06
2018-09-13T22:48:18.980Z,15.09
2018-09-13T22:50:49.212Z,15.07
2018-09-13T22:53:21.890Z,15.03
2018-09-13T22:55:52.969Z,14.99
2018-09-13T22:58:27.756Z,14.85
2018-09-13T23:00:58.506Z,14.89
2018-09-13T23:03:28.487Z,14.76
2018-09-13T23:05:58.155Z,14.68
2018-09-13T23:08:29.104Z,14.65
2018-09-13T23:11:01.806Z,14.71
2018-09-13T23:13:33.715Z,14.79
2018-09-13T23:16:03.554Z,14.79
2018-09-13T23:18:33.208Z,14.76
2018-09-13T23:21:02.905Z,14.72
2018-09-13T23:23:36.584Z,14.69
2018-09-13T23:26:07.306Z,14.65
2018-09-13T23:28:37.779Z,14.73
2018-09-13T23:31:07.959Z,14.82
2018-09-13T23:33:38.073Z,14.85
2018-09-13T23:36:07.791Z,14.90
2018-09-13T23:38:37.614Z,14.91
2018-09-13T23:41:07.139Z,14.91
2018-09-13T23:43:37.589Z,14.83
2018-09-13T23:46:07.217Z,14.78
2018-09-13T23:48:37.721Z,14.75
2018-09-13T23:51:07.919Z,14.72
2018-09-13T23:53:37.545Z,14.77
2018-09-13T23:56:07.207Z,14.80
2018-09-13T23:58:38.157Z,14.80
